Weather observations for the past three days for
York, York Municipal Airport
Imperial (Metric)
Date Time (cdt) Wind (mph) Vis. (mi.) Weather Sky Cond. Temperature (ºF) Relative Humidity Wind Chill (°F) Heat Index (°F) Pressure Precipitation (in)
Air Dwpt 6 hour altimeter (in) sea level (mb) 1 hr 3 hr 6 hr
Max. Min.
05 22:55 N 10 10.00 Overcast OVC100 48.2 24.8 40% 44 29.99 0.0
05 22:35 N 7 10.00 Overcast FEW085 OVC110 48.2 26.6 43% 46 29.99 0.0
05 22:15 N 9 10.00 Overcast OVC110 48.2 26.6 43% 45 29.98 0.0
05 21:55 N 8 10.00 Overcast FEW080 OVC110 50 24.8 37% 47 29.97 0.0
05 21:35 N 8 10.00 Overcast FEW075 FEW090 OVC110 50 24.8 37% 47 29.96 0.0
05 21:15 N 12 10.00 Overcast SCT080 OVC100 50 24.8 37% 46 29.95 0.0
05 20:55 N 13 10.00 Overcast FEW070 BKN080 OVC100 51.8 24.8 35% 29.94 0.0
05 20:35 N 14 10.00 Overcast FEW085 OVC100 51.8 23 32% 29.93 0.0
05 20:15 N 13 10.00 Partly Cloudy SCT100 51.8 24.8 35% 29.93 0.0
05 19:55 N 17 10.00 Partly Cloudy SCT100 53.6 24.8 33% 29.92 0.0
05 19:35 N 16 10.00 Fair CLR 53.6 24.8 33% 29.92 0.0
05 19:15 N 18 10.00 Fair CLR 53.6 24.8 33% 29.91 0.0
05 18:55 N 21 10.00 Fair and Breezy CLR 55.4 26.6 33% 29.91 0.0
05 18:35 N 12 G 24 10.00 A Few Clouds FEW070 55.4 26.6 33% 29.9 0.0
05 18:15 N 10 G 18 10.00 A Few Clouds FEW075 FEW120 55.4 28.4 36% 29.9 0.0
05 17:55 N 13 10.00 Partly Cloudy SCT075 55.4 28.4 36% 29.9 0.0
05 17:35 NW 15 G 25 10.00 Partly Cloudy FEW075 SCT085 57.2 26.6 31% 29.89 0.0
05 17:15 NW 16 10.00 Mostly Cloudy SCT070 BKN085 57.2 26.6 31% 29.9 0.0
05 16:55 NW 12 10.00 Mostly Cloudy BKN070 BKN080 57.2 28.4 33% 29.9 0.0
05 16:35 N 8 10.00 Mostly Cloudy BKN065 BKN080 55.4 30.2 38% 29.91 0.0
05 16:15 N 8 G 14 10.00 Partly Cloudy SCT060 SCT075 55.4 30.2 38% 29.91 0.0
05 15:35 N 9 10.00 A Few Clouds FEW075 57.2 30.2 36% 29.93 0.0
05 15:15 NW 12 10.00 Partly Cloudy FEW060 SCT070 55.4 30.2 38% 29.93 0.0
05 14:55 NW 12 10.00 Mostly Cloudy SCT060 BKN070 55.4 30.2 38% 29.94 0.0
05 14:35 NW 12 10.00 Partly Cloudy SCT060 55.4 28.4 36% 29.94 0.0
05 14:15 NW 12 G 17 10.00 A Few Clouds FEW065 55.4 30.2 38% 29.94 0.0
05 13:55 N 10 10.00 A Few Clouds FEW060 57.2 30.2 36% 29.94 0.0
05 13:35 N 9 10.00 Fair CLR 55.4 30.2 38% 29.95 0.0
05 13:15 NW 9 10.00 Fair CLR 55.4 30.2 38% 29.95 0.0
05 12:55 N 8 G 15 10.00 Mostly Cloudy BKN080 53.6 32 44% 29.96 0.0
05 12:35 N 15 10.00 Partly Cloudy SCT075 51.8 33.8 50% 29.97 0.0
05 12:15 N 10 G 21 10.00 Mostly Cloudy SCT065 BKN080 51.8 33.8 50% 29.97 0.0
05 11:55 NW 10 10.00 Partly Cloudy FEW048 SCT060 SCT075 51.8 33.8 50% 29.97 0.0
05 11:35 N 10 G 22 10.00 Light Rain SCT048 SCT060 50 32 50% 46 29.97 0.0
05 11:15 N 15 G 22 10.00 Partly Cloudy SCT060 SCT085 51.8 30.2 44% 29.97 0.0
05 10:35 N 10 10.00 Overcast OVC070 50 30.2 47% 46 29.95 0.0
05 10:15 N 10 10.00 Mostly Cloudy SCT070 BKN100 51.8 30.2 44% 29.95 0.0
05 09:55 N 10 10.00 Overcast OVC100 50 30.2 47% 46 29.95 0.0
05 09:35 N 9 10.00 Overcast OVC100 50 30.2 47% 47 29.94 0.0
05 09:15 N 12 10.00 Overcast OVC100 50 30.2 47% 46 29.93 0.0
05 08:55 N 8 10.00 Overcast OVC100 50 33.8 54% 47 29.93 0.0
05 08:35 N 6 10.00 Overcast OVC100 48.2 35.6 62% 46 29.93 0.0
05 08:15 NE 6 10.00 Overcast OVC095 48.2 35.6 62% 46 29.92 0.0
05 07:55 N 6 10.00 Overcast OVC095 48.2 37.4 66% 46 29.92 0.0
05 07:35 NE 7 10.00 Overcast OVC100 48.2 37.4 66% 46 29.9 0.0
05 07:15 NE 6 10.00 Overcast OVC100 48.2 39.2 71% 46 29.9 0.0
05 06:55 NE 7 10.00 Overcast OVC100 48.2 41 76% 46 29.88 0.0
05 06:35 NE 8 10.00 Overcast OVC100 48.2 42.8 82% 45 29.87 0.0
05 06:15 NE 9 10.00 Overcast FEW070 FEW085 OVC100 48.2 42.8 82% 45 29.86 0.0
05 05:55 NE 5 10.00 Overcast FEW065 BKN075 OVC110 46.4 44.6 93% 45 29.84 0.0
05 05:35 N 5 10.00 Overcast BKN065 OVC075 46.4 44.6 93% 45 29.84 0.0
05 05:15 NE 3 10.00 Overcast BKN075 OVC095 46.4 44.6 93% 29.84 0.0
05 04:55 NE 6 10.00 Overcast BKN080 OVC090 46.4 44.6 93% 44 29.84 0.0
05 04:35 Calm 10.00 Overcast SCT080 BKN095 OVC120 46.4 41 82% 29.84 0.0
05 04:15 NE 3 10.00 Overcast SCT075 BKN090 OVC120 48.2 41 76% 29.84 0.0
05 03:55 Calm 10.00 Overcast BKN075 OVC090 50 41 71% 29.85 0.0
05 03:35 Calm 10.00 Overcast FEW080 OVC095 50 39.2 67% 29.84 0.0
05 03:15 Calm 10.00 Overcast FEW080 OVC100 50 41 71% 29.84 0.0
05 02:55 Calm 10.00 Overcast FEW065 BKN080 OVC095 50 41 71% 29.83 0.0
05 02:35 Calm 10.00 Overcast OVC075 50 41 71% 29.84 0.0
05 02:15 Calm 10.00 Overcast BKN065 OVC075 50 41 71% 29.84 0.0
05 01:55 NE 5 10.00 Overcast FEW048 SCT060 OVC070 50 41 71% 49 29.83 0.0
05 01:35 Calm 10.00 Light Rain FEW036 SCT047 BKN070 50 41 71% 29.83 0.0
05 01:15 E 6 10.00 Overcast FEW050 SCT075 OVC090 50 41 71% 48 29.83 0.0
05 00:55 E 6 10.00 Overcast OVC090 50 41 71% 48 29.83 0.0
05 00:35 NE 9 10.00 Overcast OVC090 50 41 71% 47 29.82 0.0
05 00:15 NE 12 10.00 Light Rain FEW042 SCT075 OVC095 50 41 71% 46 29.81 0.0
04 23:55 NE 12 10.00 Overcast FEW043 SCT075 OVC095 51.8 37.4 58% 29.82 0.0
04 23:35 NE 13 10.00 Overcast SCT080 OVC095 51.8 37.4 58% 29.82 0.0
04 23:15 N 18 G 25 10.00 Overcast FEW049 SCT075 OVC095 53.6 35.6 51% 29.84 0.0
04 22:55 N 22 G 29 10.00 Overcast and Breezy FEW045 SCT070 OVC095 53.6 33.8 47% 29.82 0.0
04 22:35 N 21 10.00 Mostly Cloudy and Breezy FEW039 SCT070 BKN100 55.4 33.8 44% 29.82 0.0
04 22:15 NE 17 G 24 10.00 Overcast FEW070 OVC110 55.4 32 41% 29.8 0.0
04 21:55 N 18 G 25 10.00 Overcast OVC110 55.4 32 41% 29.8 0.0
04 21:35 N 20 G 26 10.00 Mostly Cloudy BKN110 57.2 33.8 41% 29.79 0.0
04 21:15 N 22 10.00 Mostly Cloudy and Breezy BKN110 57.2 35.6 44% 29.76 0.0
04 20:55 N 20 G 31 10.00 Fair CLR 57.2 35.6 44% 29.76 0.0
04 20:35 N 32 G 39 10.00 Fair and Windy CLR 59 35.6 42% 29.74 0.0
04 20:15 N 22 G 31 10.00 Fair and Breezy CLR 60.8 33.8 36% 29.71 0.0
04 19:55 N 30 G 36 10.00 Fair and Windy CLR 62.6 33.8 34% 29.71 0.0
04 19:35 N 24 G 32 10.00 Fair and Breezy CLR 66.2 33.8 30% 29.69 0.0
04 19:15 N 26 G 33 10.00 Fair and Windy CLR 68 33.8 28% 29.68 0.0
04 18:55 N 22 G 28 10.00 Fair and Breezy CLR 68 33.8 28% 29.7 0.0
04 18:35 N 24 10.00 Fair and Breezy CLR 69.8 35.6 29% 29.69 0.0
04 18:15 N 23 10.00 Fair and Breezy CLR 69.8 35.6 29% 29.69 0.0
04 17:55 N 22 G 30 10.00 Fair and Breezy CLR 71.6 37.4 29% 29.68 0.0
04 17:35 N 18 G 29 10.00 Fair CLR 71.6 37.4 29% 29.68 0.0
04 17:15 N 22 G 29 10.00 Fair and Breezy CLR 71.6 35.6 27% 29.67 0.0
04 16:55 N 25 10.00 Fair and Breezy CLR 73.4 35.6 25% 29.66 0.0
04 16:35 N 18 G 32 10.00 Fair CLR 73.4 35.6 25% 29.66 0.0
04 16:15 N 25 G 32 10.00 Fair and Breezy CLR 75.2 37.4 25% 77 29.64 0.0
04 15:55 N 22 G 32 10.00 Fair and Breezy CLR 73.4 37.4 27% 29.63 0.0
04 15:35 N 21 G 31 10.00 Fair and Breezy CLR 75.2 39.2 27% 77 29.64 0.0
04 15:15 N 18 G 26 10.00 Fair CLR 75.2 41 29% 77 29.64 0.0
04 14:55 N 17 G 30 10.00 Fair CLR 77 42.8 30% 78 29.64 0.0
04 14:35 N 22 G 32 10.00 Fair and Breezy CLR 77 42.8 30% 78 29.63 0.0
04 14:15 N 16 G 29 10.00 Fair CLR 78.8 44.6 30% 79 29.63 0.0
04 13:55 N 13 G 30 10.00 Fair CLR 77 42.8 30% 78 29.63 0.0
04 13:35 N 17 G 35 10.00 Fair CLR 78.8 42.8 28% 78 29.63 0.0
04 13:15 NW 16 G 26 10.00 Fair CLR 80.6 41 24% 79 29.62 0.0
04 12:55 NW 17 G 23 10.00 Fair CLR 80.6 39.2 23% 79 29.62 0.0
04 12:35 N 13 G 25 10.00 Fair CLR 80.6 39.2 23% 79 29.62 0.0
04 12:15 W 10 G 23 10.00 Fair CLR 80.6 35.6 20% 79 29.62 0.0
04 11:55 NW 12 G 21 10.00 Fair CLR 78.8 37.4 23% 78 29.63 0.0
04 11:35 W 18 10.00 Fair CLR 78.8 39.2 24% 78 29.63 0.0
04 11:15 W 16 10.00 Fair CLR 77 41 28% 78 29.63 0.0
04 10:55 W 15 10.00 Fair CLR 75.2 41 29% 77 29.63 0.0
04 10:35 W 15 10.00 Fair CLR 73.4 42.8 33% 29.63 0.0
04 10:15 W 14 10.00 Fair CLR 71.6 42.8 36% 29.64 0.0
04 09:55 W 12 10.00 Fair CLR 69.8 41 35% 29.64 0.0
04 09:35 W 13 10.00 Fair CLR 68 41 38% 29.64 0.0
04 09:15 W 13 10.00 Fair CLR 66.2 41 40% 29.64 0.0
04 08:55 NW 10 10.00 Fair CLR 62.6 41 45% 29.64 0.0
04 08:35 NW 10 10.00 Fair CLR 60.8 42.8 52% 29.64 0.0
04 08:15 NW 12 10.00 Fair CLR 57.2 41 55% 29.64 0.0
04 07:55 NW 10 10.00 Fair CLR 55.4 42.8 63% 29.64 0.0
04 07:35 N 3 10.00 Fair CLR 51.8 42.8 72% 29.64 0.0
04 06:55 W 8 9.00 Fair CLR 46.4 41 82% 43 29.62 0.0
04 06:35 W 10 10.00 Fair CLR 46.4 41 82% 42 29.62 0.0
04 06:15 W 6 10.00 Fair CLR 46.4 39.2 76% 44 29.62 0.0
04 05:55 W 7 10.00 Fair CLR 44.6 39.2 81% 41 29.62 0.0
04 05:35 W 3 10.00 Fair CLR 46.4 39.2 76% 29.62 0.0
04 05:15 Calm 10.00 Fair CLR 46.4 39.2 76% 29.62 0.0
04 04:55 W 5 10.00 Fair CLR 46.4 39.2 76% 45 29.63 0.0
04 04:35 SW 5 10.00 Fair CLR 46.4 39.2 76% 45 29.63 0.0
04 04:15 S 7 10.00 Fair CLR 48.2 41 76% 46 29.64 0.0
04 03:55 SW 7 10.00 Fair CLR 48.2 41 76% 46 29.65 0.0
04 03:35 S 5 10.00 Fair CLR 53.6 37.4 54% 29.65 0.0
04 03:15 S 5 10.00 Fair CLR 53.6 37.4 54% 29.65 0.0
04 02:55 S 7 10.00 Fair CLR 55.4 37.4 51% 29.66 0.0
04 02:35 S 7 10.00 Fair CLR 53.6 39.2 58% 29.67 0.0
04 02:15 S 7 10.00 Fair CLR 53.6 37.4 54% 29.68 0.0
04 01:55 S 7 10.00 Fair CLR 53.6 39.2 58% 29.7 0.0
04 01:35 S 7 10.00 Fair CLR 55.4 39.2 55% 29.7 0.0
04 01:15 SE 9 10.00 Fair CLR 59 37.4 45% 29.71 0.0
04 00:55 SE 6 10.00 Fair CLR 57.2 39.2 51% 29.72 0.0
04 00:35 SE 6 10.00 Fair CLR 57.2 39.2 51% 29.73 0.0
04 00:15 SE 6 10.00 Fair CLR 59 39.2 48% 29.74 0.0
03 23:55 SE 5 10.00 Fair CLR 59 37.4 45% 29.74 0.0
03 23:35 SE 6 10.00 Mostly Cloudy BKN065 60.8 37.4 42% 29.74 0.0
03 23:15 SE 7 10.00 Overcast OVC060 59 39.2 48% 29.75 0.0
03 22:55 SE 7 10.00 Overcast BKN065 BKN075 OVC095 60.8 39.2 45% 29.75 0.0
03 22:35 SE 8 10.00 Mostly Cloudy FEW075 BKN090 62.6 37.4 39% 29.76 0.0
03 22:15 SE 7 10.00 Partly Cloudy SCT085 62.6 37.4 39% 29.77 0.0
03 21:55 SE 6 10.00 A Few Clouds FEW080 62.6 37.4 39% 29.77 0.0
03 21:35 SE 5 10.00 Fair CLR 62.6 39.2 42% 29.77 0.0
03 21:15 E 6 10.00 Fair CLR 64.4 39.2 40% 29.77 0.0
03 20:55 E 6 10.00 Fair CLR 66.2 37.4 35% 29.77 0.0
03 20:35 Calm 10.00 Fair CLR 66.2 41 40% 29.78 0.0
03 20:15 N 5 10.00 Fair CLR 69.8 35.6 29% 29.77 0.0
03 19:55 Calm 10.00 Fair CLR 69.8 37.4 31% 29.78 0.0
03 19:35 Calm 10.00 Fair CLR 71.6 37.4 29% 29.79 0.0
03 19:15 Calm 10.00 Fair CLR 71.6 42.8 36% 29.79 0.0
03 18:55 Calm 10.00 Fair CLR 73.4 35.6 25% 29.8 0.0
03 18:35 Calm 10.00 Fair CLR 73.4 35.6 25% 29.81 0.0
03 18:15 Vrbl 3 10.00 Fair CLR 73.4 35.6 25% 29.81 0.0
03 17:55 Calm 9.00 Fair CLR 73.4 35.6 25% 29.82 0.0
03 17:35 NW 5 10.00 Fair CLR 73.4 35.6 25% 29.82 0.0
03 17:15 Calm 10.00 Fair CLR 73.4 35.6 25% 29.82 0.0
03 16:55 Vrbl 3 10.00 Fair CLR 73.4 37.4 27% 29.83 0.0
03 16:35 E 5 G 13 10.00 Fair CLR 73.4 35.6 25% 29.83 0.0
03 16:15 Calm 10.00 Fair CLR 73.4 33.8 23% 29.83 0.0
03 15:55 N 5 G 12 10.00 Fair CLR 73.4 35.6 25% 29.84 0.0
03 15:35 Vrbl 5 10.00 Fair CLR 73.4 35.6 25% 29.85 0.0
03 15:15 Vrbl 3 G 15 10.00 Fair CLR 71.6 35.6 27% 29.86 0.0
03 14:55 NE 10 G 17 10.00 Fair CLR 73.4 37.4 27% 29.87 0.0
03 14:35 N 9 10.00 Fair CLR 73.4 37.4 27% 29.87 0.0
03 14:15 N 12 G 21 10.00 Fair CLR 73.4 35.6 25% 29.88 0.0
03 13:55 N 9 10.00 Fair CLR 73.4 37.4 27% 29.88 0.0
03 13:35 N 8 G 15 10.00 Fair CLR 73.4 37.4 27% 29.88 0.0
03 13:15 NE 14 10.00 Fair CLR 73.4 37.4 27% 29.89 0.0
03 12:55 NE 9 G 20 10.00 Fair CLR 73.4 37.4 27% 29.9 0.0
03 12:35 N 9 G 17 10.00 Fair CLR 71.6 37.4 29% 29.91 0.0
03 12:15 N 12 G 17 10.00 Fair CLR 71.6 37.4 29% 29.91 0.0
03 11:55 N 14 10.00 Fair CLR 71.6 39.2 31% 29.91 0.0
03 11:35 N 8 G 18 10.00 Fair CLR 69.8 41 35% 29.91 0.0
03 11:15 N 15 10.00 Fair CLR 69.8 39.2 33% 29.92 0.0
03 10:55 N 10 G 16 10.00 Fair CLR 68 39.2 35% 29.92 0.0
03 10:35 N 9 10.00 Fair CLR 66.2 39.2 37% 29.92 0.0
03 10:15 N 10 10.00 Fair CLR 66.2 39.2 37% 29.92 0.0
03 09:55 NW 12 10.00 Fair CLR 64.4 39.2 40% 29.92 0.0
03 09:35 N 8 G 14 10.00 Fair CLR 62.6 37.4 39% 29.92 0.0
03 09:15 NW 8 10.00 Fair CLR 62.6 37.4 39% 29.91 0.0
03 08:55 NW 10 10.00 Fair CLR 60.8 39.2 45% 29.91 0.0
03 08:35 W 9 10.00 Fair CLR 59 39.2 48% 29.9 0.0
03 08:15 W 9 10.00 Fair CLR 55.4 39.2 55% 29.89 0.0
03 07:55 W 9 10.00 Fair CLR 53.6 39.2 58% 29.9 0.0
03 07:35 SW 9 10.00 Fair CLR 50 39.2 67% 47 29.89 0.0
03 07:15 SW 8 10.00 Fair CLR 48.2 37.4 66% 45 29.88 0.0
03 06:55 SW 9 10.00 Fair CLR 48.2 37.4 66% 45 29.88 0.0
03 06:35 SW 9 10.00 Fair CLR 46.4 37.4 71% 42 29.88 0.0
03 06:15 SW 8 10.00 Fair CLR 46.4 35.6 66% 43 29.87 0.0
03 05:35 SW 8 10.00 Fair CLR 46.4 35.6 66% 43 29.87 0.0
03 05:15 W 10 10.00 Fair CLR 50 33.8 54% 46 29.89 0.0
03 04:55 NW 18 G 26 10.00 Fair CLR 50 32 50% 44 29.91 0.0
03 04:35 SW 15 10.00 Fair CLR 51.8 32 47% 29.85 0.0
03 04:15 S 13 10.00 Fair CLR 50 32 50% 46 29.86 0.0
03 03:55 S 12 10.00 Fair CLR 50 30.2 47% 46 29.86 0.0
03 03:35 S 13 10.00 Fair CLR 50 30.2 47% 46 29.86 0.0
03 03:15 SW 14 10.00 Fair CLR 51.8 30.2 44% 29.87 0.0
03 02:55 SW 15 10.00 Fair CLR 51.8 30.2 44% 29.88 0.0
03 02:35 SW 16 G 22 10.00 Fair CLR 53.6 30.2 41% 29.89 0.0
03 02:15 SW 15 G 22 10.00 Fair CLR 53.6 30.2 41% 29.89 0.0
03 01:55 SW 16 10.00 Fair CLR 53.6 30.2 41% 29.9 0.0
03 01:35 SW 16 10.00 Fair CLR 53.6 30.2 41% 29.9 0.0
03 01:15 S 18 G 24 10.00 Fair CLR 55.4 30.2 38% 29.9 0.0
03 00:55 S 17 10.00 Fair CLR 55.4 30.2 38% 29.9 0.0
03 00:35 S 17 10.00 Fair CLR 55.4 30.2 38% 29.9 0.0
03 00:15 S 17 10.00 Fair CLR 55.4 30.2 38% 29.91 0.0
02 23:55 S 16 10.00 Fair CLR 55.4 30.2 38% 29.91 0.0
02 23:35 S 18 10.00 Fair CLR 57.2 30.2 36% 29.91 0.0
Date Time (cdt) Wind (mph) Vis. (mi.) Weather Sky Cond. Air Dwpt Max. Min. Relative Humidity Wind Chill (°F) Heat Index (°F) altimeter (in) sea level (mb) 1 hr 3 hr 6 hr
6 hour
Temperature (ºF) Pressure Precipitation (in)